Koyo Maru — JI3710 — position and weather

sailwx.info

Track history (hours):
 
Tides and Currents Weather Stations Pressure Air Temp Water Temp Dewpoint Dewpoint Depression Visibility Wind Speed Wind Dir Waves Ship Positions

Koyo Maru

Last reported at 2017-Mar-27 14:30 UTC. Time now 2017-Mar-27 14:36 UTC.
Position N 35°34' E 139°59'.

Length 125 m; draft 6 m.

Type: Cargo ship. MMSI: 431401953.

Date/timePositionNaut miles runAvg speedWind from/ knotsBaromVisibWave heightAir tempDewpointWater temp
2017-Mar-27 14:30N 35°34' E 139°59'0 0.0
2017-Mar-27 13:33N 35°34' E 139°59'3 2.8
2017-Mar-27 12:33N 35°32' E 139°56'1515.2
2017-Mar-27 11:34N 35°20' E 139°44'1413.0
2017-Mar-27 10:30N 35°07' E 139°44'39816.3
2017-Mar-26 10:07N 33°17' E 132°02'35 2.4
2017-Mar-25 19:31N 33°46' E 132°24'1716.9
2017-Mar-25 18:32N 33°56' E 132°40'11814.8
2017-Mar-25 10:33N 34°36' E 134°55'1616.0
2017-Mar-25 09:33N 34°36' E 135°14'10 8.7
2017-Mar-25 08:28N 34°35' E 135°26'0 0.0
2017-Mar-25 07:28N 34°35' E 135°26'0 0.0
2017-Mar-25 06:28N 34°35' E 135°26'0 0.0
2017-Mar-25 05:28N 34°35' E 135°26'0 0.0
2017-Mar-25 04:28N 34°35' E 135°26'0 0.0
2017-Mar-25 03:28N 34°35' E 135°26'0 0.0
2017-Mar-25 02:28N 34°35' E 135°26'0 0.0
2017-Mar-25 01:10N 34°35' E 135°26'0 0.0
2017-Mar-25 00:22N 34°35' E 135°26'0 0.0
2017-Mar-24 23:16N 34°35' E 135°26'0 0.0
2017-Mar-24 22:23N 34°35' E 135°26'6 6.9
2017-Mar-24 21:33N 34°35' E 135°19'1 0.8
2017-Mar-24 20:32N 34°35' E 135°18'1313.2
2017-Mar-24 19:33N 34°36' E 135°02'12915.4
2017-Mar-24 11:12N 34°02' E 132°32'1 0.0
2017-Mar-23 06:29N 34°02' E 132°31'  
2017-Mar-20 11:16N 35°04' E 139°27'1217.0
2017-Mar-20 10:33N 35°07' E 139°41'1211.8
2017-Mar-20 09:33N 35°18' E 139°44'1313.0
2017-Mar-20 08:34N 35°30' E 139°51'9 9.1
2017-Mar-20 07:31N 35°38' E 139°46'0 0.1
2017-Mar-20 06:33N 35°38' E 139°46'1311.3
2017-Mar-20 05:26N 35°34' E 140°00'1 0.2
2017-Mar-19 23:33N 35°34' E 140°02'1616.3
2017-Mar-19 22:34N 35°24' E 139°46'1212.2
2017-Mar-19 21:33N 35°12' E 139°47'1616.4
2017-Mar-19 20:33N 34°59' E 139°34'23415.4
2017-Mar-19 05:23N 33°57' E 135°01'1518.2
2017-Mar-19 04:34N 34°12' E 134°59'1616.3
2017-Mar-19 03:33N 34°27' E 135°08'1616.1
2017-Mar-19 02:32N 34°36' E 135°24'2 2.0
2017-Mar-19 01:31N 34°35' E 135°26'0 0.0
2017-Mar-19 00:31N 34°35' E 135°26'0 0.0
2017-Mar-18 23:31N 34°35' E 135°26'0 0.0
2017-Mar-18 22:31N 34°35' E 135°26'7 6.6
2017-Mar-18 21:31N 34°34' E 135°18'0 0.2
2017-Mar-18 20:33N 34°34' E 135°17'0 0.0
2017-Mar-18 19:09N 34°34' E 135°17'0 0.0
2017-Mar-18 18:33N 34°34' E 135°17'0 0.0
2017-Mar-18 17:33N 34°34' E 135°17'0 0.0
2017-Mar-18 16:33N 34°34' E 135°17'0 0.1
2017-Mar-18 15:33N 34°34' E 135°17'1212.7
2017-Mar-18 14:33N 34°36' E 135°02'  
Track history (hours):
 
Tides and Currents Weather Stations Pressure Air Temp Water Temp Dewpoint Dewpoint Depression Visibility Wind Speed Wind Dir Waves Ship Positions

Koyo Maru

Last reported at 2017-Mar-27 14:30 UTC. Time now 2017-Mar-27 14:36 UTC.
Position N 35°34' E 139°59'.

Length 125 m; draft 6 m.

Type: Cargo ship. MMSI: 431401953.

Date/timePositionNaut miles runAvg speedWind from/ knotsBaromVisibWave heightAir tempDewpointWater temp
2017-Mar-27 14:30N 35°34' E 139°59'0 0.0
2017-Mar-27 13:33N 35°34' E 139°59'3 2.8
2017-Mar-27 12:33N 35°32' E 139°56'1515.2
2017-Mar-27 11:34N 35°20' E 139°44'1413.0
2017-Mar-27 10:30N 35°07' E 139°44'39816.3
2017-Mar-26 10:07N 33°17' E 132°02'35 2.4
2017-Mar-25 19:31N 33°46' E 132°24'1716.9
2017-Mar-25 18:32N 33°56' E 132°40'11814.8
2017-Mar-25 10:33N 34°36' E 134°55'1616.0
2017-Mar-25 09:33N 34°36' E 135°14'10 8.7
2017-Mar-25 08:28N 34°35' E 135°26'0 0.0
2017-Mar-25 07:28N 34°35' E 135°26'0 0.0
2017-Mar-25 06:28N 34°35' E 135°26'0 0.0
2017-Mar-25 05:28N 34°35' E 135°26'0 0.0
2017-Mar-25 04:28N 34°35' E 135°26'0 0.0
2017-Mar-25 03:28N 34°35' E 135°26'0 0.0
2017-Mar-25 02:28N 34°35' E 135°26'0 0.0
2017-Mar-25 01:10N 34°35' E 135°26'0 0.0
2017-Mar-25 00:22N 34°35' E 135°26'0 0.0
2017-Mar-24 23:16N 34°35' E 135°26'0 0.0
2017-Mar-24 22:23N 34°35' E 135°26'6 6.9
2017-Mar-24 21:33N 34°35' E 135°19'1 0.8
2017-Mar-24 20:32N 34°35' E 135°18'1313.2
2017-Mar-24 19:33N 34°36' E 135°02'12915.4
2017-Mar-24 11:12N 34°02' E 132°32'1 0.0
2017-Mar-23 06:29N 34°02' E 132°31'  
2017-Mar-20 11:16N 35°04' E 139°27'1217.0
2017-Mar-20 10:33N 35°07' E 139°41'1211.8
2017-Mar-20 09:33N 35°18' E 139°44'1313.0
2017-Mar-20 08:34N 35°30' E 139°51'9 9.1
2017-Mar-20 07:31N 35°38' E 139°46'0 0.1
2017-Mar-20 06:33N 35°38' E 139°46'1311.3
2017-Mar-20 05:26N 35°34' E 140°00'1 0.2
2017-Mar-19 23:33N 35°34' E 140°02'1616.3
2017-Mar-19 22:34N 35°24' E 139°46'1212.2
2017-Mar-19 21:33N 35°12' E 139°47'1616.4
2017-Mar-19 20:33N 34°59' E 139°34'23415.4
2017-Mar-19 05:23N 33°57' E 135°01'1518.2
2017-Mar-19 04:34N 34°12' E 134°59'1616.3
2017-Mar-19 03:33N 34°27' E 135°08'1616.1
2017-Mar-19 02:32N 34°36' E 135°24'2 2.0
2017-Mar-19 01:31N 34°35' E 135°26'0 0.0
2017-Mar-19 00:31N 34°35' E 135°26'0 0.0
2017-Mar-18 23:31N 34°35' E 135°26'0 0.0
2017-Mar-18 22:31N 34°35' E 135°26'7 6.6
2017-Mar-18 21:31N 34°34' E 135°18'0 0.2
2017-Mar-18 20:33N 34°34' E 135°17'0 0.0
2017-Mar-18 19:09N 34°34' E 135°17'0 0.0
2017-Mar-18 18:33N 34°34' E 135°17'0 0.0
2017-Mar-18 17:33N 34°34' E 135°17'0 0.0
2017-Mar-18 16:33N 34°34' E 135°17'0 0.1
2017-Mar-18 15:33N 34°34' E 135°17'1212.7
2017-Mar-18 14:33N 34°36' E 135°02'  

Dump ship's entire track history